sensor_id;sensor_type;location;lat;lon;timestamp;P1;durP1;ratioP1;P2;durP2;ratioP2
9346;SDS011;4712;50.698;7.164;2022-07-10T00:00:07;5.18;;;0.93;;
9346;SDS011;4712;50.698;7.164;2022-07-10T00:02:36;7.85;;;0.90;;
9346;SDS011;4712;50.698;7.164;2022-07-10T00:05:04;4.80;;;1.13;;
9346;SDS011;4712;50.698;7.164;2022-07-10T00:07:32;7.65;;;0.98;;
9346;SDS011;4712;50.698;7.164;2022-07-10T00:09:59;5.95;;;1.40;;
9346;SDS011;4712;50.698;7.164;2022-07-10T00:12:27;4.40;;;1.38;;
9346;SDS011;4712;50.698;7.164;2022-07-10T00:14:54;4.30;;;0.90;;
9346;SDS011;4712;50.698;7.164;2022-07-10T00:17:21;4.53;;;1.08;;
9346;SDS011;4712;50.698;7.164;2022-07-10T00:19:50;6.53;;;1.23;;
9346;SDS011;4712;50.698;7.164;2022-07-10T00:22:17;4.75;;;1.15;;
9346;SDS011;4712;50.698;7.164;2022-07-10T00:24:45;3.33;;;0.90;;
9346;SDS011;4712;50.698;7.164;2022-07-10T00:27:12;5.00;;;1.00;;
9346;SDS011;4712;50.698;7.164;2022-07-10T00:29:40;3.85;;;1.02;;
9346;SDS011;4712;50.698;7.164;2022-07-10T00:32:07;5.72;;;0.90;;
9346;SDS011;4712;50.698;7.164;2022-07-10T00:34:35;6.13;;;1.40;;
9346;SDS011;4712;50.698;7.164;2022-07-10T00:37:04;7.78;;;1.02;;
9346;SDS011;4712;50.698;7.164;2022-07-10T00:39:32;4.25;;;1.00;;
9346;SDS011;4712;50.698;7.164;2022-07-10T00:42:05;8.52;;;1.50;;
9346;SDS011;4712;50.698;7.164;2022-07-10T00:44:34;4.40;;;1.25;;
9346;SDS011;4712;50.698;7.164;2022-07-10T00:47:02;4.97;;;1.33;;
9346;SDS011;4712;50.698;7.164;2022-07-10T00:49:29;11.02;;;1.50;;
9346;SDS011;4712;50.698;7.164;2022-07-10T00:51:57;4.93;;;1.10;;
9346;SDS011;4712;50.698;7.164;2022-07-10T00:54:27;7.10;;;1.40;;
9346;SDS011;4712;50.698;7.164;2022-07-10T00:56:55;5.30;;;1.25;;
9346;SDS011;4712;50.698;7.164;2022-07-10T00:59:23;3.20;;;0.90;;
9346;SDS011;4712;50.698;7.164;2022-07-10T01:01:51;2.33;;;0.88;;
9346;SDS011;4712;50.698;7.164;2022-07-10T01:04:18;6.75;;;1.08;;
9346;SDS011;4712;50.698;7.164;2022-07-10T01:06:46;5.45;;;1.00;;
9346;SDS011;4712;50.698;7.164;2022-07-10T01:09:13;5.00;;;1.00;;
9346;SDS011;4712;50.698;7.164;2022-07-10T01:11:42;5.60;;;1.10;;
9346;SDS011;4712;50.698;7.164;2022-07-10T01:14:09;4.68;;;1.25;;
9346;SDS011;4712;50.698;7.164;2022-07-10T01:16:37;3.80;;;1.02;;
9346;SDS011;4712;50.698;7.164;2022-07-10T01:19:04;6.00;;;1.00;;
9346;SDS011;4712;50.698;7.164;2022-07-10T01:21:34;4.43;;;1.08;;
9346;SDS011;4712;50.698;7.164;2022-07-10T01:24:04;4.53;;;0.88;;
9346;SDS011;4712;50.698;7.164;2022-07-10T01:26:32;8.15;;;1.27;;
9346;SDS011;4712;50.698;7.164;2022-07-10T01:29:01;2.58;;;0.70;;
9346;SDS011;4712;50.698;7.164;2022-07-10T01:31:29;2.00;;;0.60;;
9346;SDS011;4712;50.698;7.164;2022-07-10T01:33:57;2.65;;;0.95;;
9346;SDS011;4712;50.698;7.164;2022-07-10T01:36:25;2.85;;;0.90;;
9346;SDS011;4712;50.698;7.164;2022-07-10T01:38:56;5.82;;;1.10;;
9346;SDS011;4712;50.698;7.164;2022-07-10T01:41:24;4.22;;;0.90;;
9346;SDS011;4712;50.698;7.164;2022-07-10T01:43:52;3.92;;;0.98;;
9346;SDS011;4712;50.698;7.164;2022-07-10T01:46:19;4.60;;;1.20;;
9346;SDS011;4712;50.698;7.164;2022-07-10T01:48:47;5.85;;;1.10;;
9346;SDS011;4712;50.698;7.164;2022-07-10T01:51:15;4.38;;;1.15;;
9346;SDS011;4712;50.698;7.164;2022-07-10T01:53:42;3.25;;;1.10;;
9346;SDS011;4712;50.698;7.164;2022-07-10T01:56:12;4.38;;;1.45;;
9346;SDS011;4712;50.698;7.164;2022-07-10T01:58:39;4.13;;;1.10;;
9346;SDS011;4712;50.698;7.164;2022-07-10T02:01:08;4.40;;;1.23;;
9346;SDS011;4712;50.698;7.164;2022-07-10T02:03:36;5.20;;;1.42;;
9346;SDS011;4712;50.698;7.164;2022-07-10T02:06:21;5.45;;;1.33;;
9346;SDS011;4712;50.698;7.164;2022-07-10T02:08:49;5.90;;;1.25;;
9346;SDS011;4712;50.698;7.164;2022-07-10T02:11:18;4.82;;;2.17;;
9346;SDS011;4712;50.698;7.164;2022-07-10T02:13:46;9.27;;;1.30;;
9346;SDS011;4712;50.698;7.164;2022-07-10T02:16:13;4.28;;;1.23;;
9346;SDS011;4712;50.698;7.164;2022-07-10T02:18:41;5.78;;;1.23;;
9346;SDS011;4712;50.698;7.164;2022-07-10T02:21:09;3.47;;;1.15;;
9346;SDS011;4712;50.698;7.164;2022-07-10T02:23:37;2.63;;;1.13;;
9346;SDS011;4712;50.698;7.164;2022-07-10T02:26:06;3.78;;;1.35;;
9346;SDS011;4712;50.698;7.164;2022-07-10T02:28:35;7.57;;;1.35;;
9346;SDS011;4712;50.698;7.164;2022-07-10T02:31:03;2.53;;;0.95;;
9346;SDS011;4712;50.698;7.164;2022-07-10T02:33:30;4.65;;;1.65;;
9346;SDS011;4712;50.698;7.164;2022-07-10T02:35:58;6.97;;;1.25;;
9346;SDS011;4712;50.698;7.164;2022-07-10T02:38:25;4.75;;;1.20;;
9346;SDS011;4712;50.698;7.164;2022-07-10T02:40:53;4.05;;;1.17;;
9346;SDS011;4712;50.698;7.164;2022-07-10T02:43:20;4.95;;;1.23;;
9346;SDS011;4712;50.698;7.164;2022-07-10T02:45:49;4.97;;;1.15;;
9346;SDS011;4712;50.698;7.164;2022-07-10T02:48:16;5.90;;;1.10;;
9346;SDS011;4712;50.698;7.164;2022-07-10T02:50:44;4.82;;;1.33;;
9346;SDS011;4712;50.698;7.164;2022-07-10T02:53:11;5.53;;;1.45;;
9346;SDS011;4712;50.698;7.164;2022-07-10T02:55:39;5.47;;;1.25;;
9346;SDS011;4712;50.698;7.164;2022-07-10T02:58:06;6.55;;;1.02;;
9346;SDS011;4712;50.698;7.164;2022-07-10T03:00:35;4.25;;;1.40;;
9346;SDS011;4712;50.698;7.164;2022-07-10T03:03:04;3.50;;;1.23;;
9346;SDS011;4712;50.698;7.164;2022-07-10T03:05:32;4.03;;;1.27;;
9346;SDS011;4712;50.698;7.164;2022-07-10T03:07:59;5.40;;;1.05;;
9346;SDS011;4712;50.698;7.164;2022-07-10T03:10:26;6.75;;;1.42;;
9346;SDS011;4712;50.698;7.164;2022-07-10T03:12:54;6.32;;;1.10;;
9346;SDS011;4712;50.698;7.164;2022-07-10T03:15:21;6.57;;;1.40;;
9346;SDS011;4712;50.698;7.164;2022-07-10T03:17:49;6.80;;;1.30;;
9346;SDS011;4712;50.698;7.164;2022-07-10T03:20:18;4.25;;;1.10;;
9346;SDS011;4712;50.698;7.164;2022-07-10T03:22:45;6.38;;;1.52;;
9346;SDS011;4712;50.698;7.164;2022-07-10T03:25:13;2.33;;;1.02;;
9346;SDS011;4712;50.698;7.164;2022-07-10T03:27:40;5.88;;;1.50;;
9346;SDS011;4712;50.698;7.164;2022-07-10T03:30:08;8.82;;;1.08;;
9346;SDS011;4712;50.698;7.164;2022-07-10T03:32:36;6.68;;;1.05;;
9346;SDS011;4712;50.698;7.164;2022-07-10T03:35:03;3.90;;;1.10;;
9346;SDS011;4712;50.698;7.164;2022-07-10T03:37:32;9.88;;;1.75;;
9346;SDS011;4712;50.698;7.164;2022-07-10T03:40:00;8.75;;;1.20;;
9346;SDS011;4712;50.698;7.164;2022-07-10T03:42:27;4.18;;;0.95;;
9346;SDS011;4712;50.698;7.164;2022-07-10T03:44:54;4.80;;;0.90;;
9346;SDS011;4712;50.698;7.164;2022-07-10T03:47:22;4.88;;;1.02;;
9346;SDS011;4712;50.698;7.164;2022-07-10T03:49:49;5.55;;;1.10;;
9346;SDS011;4712;50.698;7.164;2022-07-10T03:52:16;3.38;;;1.15;;
9346;SDS011;4712;50.698;7.164;2022-07-10T03:54:45;6.35;;;1.15;;
9346;SDS011;4712;50.698;7.164;2022-07-10T03:57:12;7.53;;;1.40;;
9346;SDS011;4712;50.698;7.164;2022-07-10T03:59:58;6.78;;;1.20;;
9346;SDS011;4712;50.698;7.164;2022-07-10T04:02:25;4.80;;;0.98;;
9346;SDS011;4712;50.698;7.164;2022-07-10T04:04:52;4.18;;;1.65;;
9346;SDS011;4712;50.698;7.164;2022-07-10T04:07:20;4.93;;;1.08;;
9346;SDS011;4712;50.698;7.164;2022-07-10T04:09:49;4.68;;;1.13;;
9346;SDS011;4712;50.698;7.164;2022-07-10T04:12:16;6.57;;;1.20;;
9346;SDS011;4712;50.698;7.164;2022-07-10T04:14:44;7.70;;;1.30;;
9346;SDS011;4712;50.698;7.164;2022-07-10T04:17:11;5.57;;;1.20;;
9346;SDS011;4712;50.698;7.164;2022-07-10T04:19:38;5.93;;;1.25;;
9346;SDS011;4712;50.698;7.164;2022-07-10T04:22:06;4.93;;;1.10;;
9346;SDS011;4712;50.698;7.164;2022-07-10T04:24:33;3.65;;;0.98;;
9346;SDS011;4712;50.698;7.164;2022-07-10T04:27:02;10.30;;;1.98;;
9346;SDS011;4712;50.698;7.164;2022-07-10T04:29:30;3.85;;;1.10;;
9346;SDS011;4712;50.698;7.164;2022-07-10T04:31:58;5.40;;;1.42;;
9346;SDS011;4712;50.698;7.164;2022-07-10T04:34:25;4.60;;;1.33;;
9346;SDS011;4712;50.698;7.164;2022-07-10T04:36:53;3.90;;;1.35;;
9346;SDS011;4712;50.698;7.164;2022-07-10T04:39:20;4.15;;;1.25;;
9346;SDS011;4712;50.698;7.164;2022-07-10T04:41:47;6.50;;;1.00;;
9346;SDS011;4712;50.698;7.164;2022-07-10T04:44:17;3.92;;;1.00;;
9346;SDS011;4712;50.698;7.164;2022-07-10T04:46:44;6.53;;;1.35;;
9346;SDS011;4712;50.698;7.164;2022-07-10T04:49:12;5.07;;;1.02;;
9346;SDS011;4712;50.698;7.164;2022-07-10T04:51:39;4.63;;;1.20;;
9346;SDS011;4712;50.698;7.164;2022-07-10T04:54:12;7.70;;;1.27;;
9346;SDS011;4712;50.698;7.164;2022-07-10T04:56:39;3.97;;;0.90;;
9346;SDS011;4712;50.698;7.164;2022-07-10T04:59:07;6.97;;;1.20;;
9346;SDS011;4712;50.698;7.164;2022-07-10T05:01:36;7.88;;;1.20;;
9346;SDS011;4712;50.698;7.164;2022-07-10T05:04:04;4.43;;;1.80;;
9346;SDS011;4712;50.698;7.164;2022-07-10T05:06:31;7.22;;;1.20;;
9346;SDS011;4712;50.698;7.164;2022-07-10T05:08:59;6.82;;;1.38;;
9346;SDS011;4712;50.698;7.164;2022-07-10T05:11:26;6.82;;;1.27;;
9346;SDS011;4712;50.698;7.164;2022-07-10T05:13:54;3.15;;;0.98;;
9346;SDS011;4712;50.698;7.164;2022-07-10T05:16:21;6.00;;;1.83;;
9346;SDS011;4712;50.698;7.164;2022-07-10T05:18:50;4.15;;;1.08;;
9346;SDS011;4712;50.698;7.164;2022-07-10T05:21:17;5.30;;;1.20;;
9346;SDS011;4712;50.698;7.164;2022-07-10T05:23:45;9.57;;;1.40;;
9346;SDS011;4712;50.698;7.164;2022-07-10T05:26:12;6.82;;;1.45;;
9346;SDS011;4712;50.698;7.164;2022-07-10T05:28:39;5.53;;;1.30;;
9346;SDS011;4712;50.698;7.164;2022-07-10T05:31:07;4.50;;;1.17;;
9346;SDS011;4712;50.698;7.164;2022-07-10T05:33:35;4.25;;;1.20;;
9346;SDS011;4712;50.698;7.164;2022-07-10T05:36:06;5.35;;;1.63;;
9346;SDS011;4712;50.698;7.164;2022-07-10T05:38:33;7.13;;;1.42;;
9346;SDS011;4712;50.698;7.164;2022-07-10T05:41:01;7.47;;;1.90;;
9346;SDS011;4712;50.698;7.164;2022-07-10T05:43:28;7.95;;;1.27;;
9346;SDS011;4712;50.698;7.164;2022-07-10T05:45:56;7.82;;;1.42;;
9346;SDS011;4712;50.698;7.164;2022-07-10T05:48:24;6.38;;;1.92;;
9346;SDS011;4712;50.698;7.164;2022-07-10T05:50:51;7.78;;;1.60;;
9346;SDS011;4712;50.698;7.164;2022-07-10T05:53:20;11.55;;;1.25;;
9346;SDS011;4712;50.698;7.164;2022-07-10T05:55:48;4.78;;;1.08;;
9346;SDS011;4712;50.698;7.164;2022-07-10T05:58:16;5.35;;;1.48;;
9346;SDS011;4712;50.698;7.164;2022-07-10T06:00:43;7.28;;;1.52;;
9346;SDS011;4712;50.698;7.164;2022-07-10T06:03:12;11.48;;;1.70;;
9346;SDS011;4712;50.698;7.164;2022-07-10T06:05:39;7.50;;;1.63;;
9346;SDS011;4712;50.698;7.164;2022-07-10T06:08:07;3.90;;;1.40;;
9346;SDS011;4712;50.698;7.164;2022-07-10T06:10:35;5.30;;;1.60;;
9346;SDS011;4712;50.698;7.164;2022-07-10T06:13:03;11.90;;;1.42;;
9346;SDS011;4712;50.698;7.164;2022-07-10T06:15:30;4.50;;;1.30;;
9346;SDS011;4712;50.698;7.164;2022-07-10T06:17:58;6.28;;;1.10;;
9346;SDS011;4712;50.698;7.164;2022-07-10T06:20:25;7.47;;;1.30;;
9346;SDS011;4712;50.698;7.164;2022-07-10T06:22:53;7.93;;;1.20;;
9346;SDS011;4712;50.698;7.164;2022-07-10T06:25:21;3.13;;;1.00;;
9346;SDS011;4712;50.698;7.164;2022-07-10T06:27:49;6.43;;;1.30;;
9346;SDS011;4712;50.698;7.164;2022-07-10T06:30:17;7.38;;;1.15;;
9346;SDS011;4712;50.698;7.164;2022-07-10T06:32:44;10.05;;;1.52;;
9346;SDS011;4712;50.698;7.164;2022-07-10T06:35:12;5.45;;;1.23;;
9346;SDS011;4712;50.698;7.164;2022-07-10T06:37:39;4.68;;;1.17;;
9346;SDS011;4712;50.698;7.164;2022-07-10T06:40:07;6.82;;;1.50;;
9346;SDS011;4712;50.698;7.164;2022-07-10T06:42:34;7.75;;;1.23;;
9346;SDS011;4712;50.698;7.164;2022-07-10T06:45:11;4.85;;;1.40;;
9346;SDS011;4712;50.698;7.164;2022-07-10T06:47:38;7.15;;;1.30;;
9346;SDS011;4712;50.698;7.164;2022-07-10T06:50:25;8.10;;;1.25;;
9346;SDS011;4712;50.698;7.164;2022-07-10T06:52:53;3.28;;;1.30;;
9346;SDS011;4712;50.698;7.164;2022-07-10T06:55:20;4.78;;;1.13;;
9346;SDS011;4712;50.698;7.164;2022-07-10T06:57:48;7.95;;;1.35;;
9346;SDS011;4712;50.698;7.164;2022-07-10T07:00:17;5.60;;;1.35;;
9346;SDS011;4712;50.698;7.164;2022-07-10T07:02:44;7.00;;;1.17;;
9346;SDS011;4712;50.698;7.164;2022-07-10T07:05:12;5.63;;;1.65;;
9346;SDS011;4712;50.698;7.164;2022-07-10T07:07:39;5.57;;;1.38;;
9346;SDS011;4712;50.698;7.164;2022-07-10T07:10:07;6.05;;;1.15;;
9346;SDS011;4712;50.698;7.164;2022-07-10T07:12:35;3.70;;;1.17;;
9346;SDS011;4712;50.698;7.164;2022-07-10T07:15:03;9.38;;;1.98;;
9346;SDS011;4712;50.698;7.164;2022-07-10T07:17:31;6.10;;;1.50;;
9346;SDS011;4712;50.698;7.164;2022-07-10T07:20:12;3.25;;;1.05;;
9346;SDS011;4712;50.698;7.164;2022-07-10T07:22:57;6.97;;;1.80;;
9346;SDS011;4712;50.698;7.164;2022-07-10T07:25:37;4.90;;;1.35;;
9346;SDS011;4712;50.698;7.164;2022-07-10T07:28:08;3.10;;;1.48;;
9346;SDS011;4712;50.698;7.164;2022-07-10T07:30:36;10.60;;;1.98;;
9346;SDS011;4712;50.698;7.164;2022-07-10T07:33:05;4.38;;;1.65;;
9346;SDS011;4712;50.698;7.164;2022-07-10T07:35:32;6.13;;;1.90;;
9346;SDS011;4712;50.698;7.164;2022-07-10T07:38:00;3.92;;;1.58;;
9346;SDS011;4712;50.698;7.164;2022-07-10T07:40:28;4.70;;;1.70;;
9346;SDS011;4712;50.698;7.164;2022-07-10T07:42:56;13.90;;;2.00;;
9346;SDS011;4712;50.698;7.164;2022-07-10T07:45:24;7.30;;;1.63;;
9346;SDS011;4712;50.698;7.164;2022-07-10T07:47:52;5.88;;;1.70;;
9346;SDS011;4712;50.698;7.164;2022-07-10T07:50:23;2.95;;;1.23;;
9346;SDS011;4712;50.698;7.164;2022-07-10T07:52:51;4.45;;;1.65;;
9346;SDS011;4712;50.698;7.164;2022-07-10T07:55:19;5.18;;;1.42;;
9346;SDS011;4712;50.698;7.164;2022-07-10T07:57:47;5.00;;;1.10;;
9346;SDS011;4712;50.698;7.164;2022-07-10T08:00:15;5.30;;;1.05;;
9346;SDS011;4712;50.698;7.164;2022-07-10T08:02:43;4.47;;;1.30;;
9346;SDS011;4712;50.698;7.164;2022-07-10T08:05:11;4.55;;;1.20;;
9346;SDS011;4712;50.698;7.164;2022-07-10T08:07:41;3.08;;;1.00;;
9346;SDS011;4712;50.698;7.164;2022-07-10T08:10:09;6.13;;;1.92;;
9346;SDS011;4712;50.698;7.164;2022-07-10T08:12:37;4.00;;;1.50;;
9346;SDS011;4712;50.698;7.164;2022-07-10T08:15:06;5.32;;;1.63;;
9346;SDS011;4712;50.698;7.164;2022-07-10T08:17:33;4.20;;;1.35;;
9346;SDS011;4712;50.698;7.164;2022-07-10T08:20:01;4.63;;;1.27;;
9346;SDS011;4712;50.698;7.164;2022-07-10T08:22:28;4.80;;;1.10;;
9346;SDS011;4712;50.698;7.164;2022-07-10T08:24:57;3.45;;;1.10;;
9346;SDS011;4712;50.698;7.164;2022-07-10T08:27:24;6.05;;;1.20;;
9346;SDS011;4712;50.698;7.164;2022-07-10T08:29:53;4.68;;;1.08;;
9346;SDS011;4712;50.698;7.164;2022-07-10T08:32:20;5.15;;;1.48;;
9346;SDS011;4712;50.698;7.164;2022-07-10T08:34:48;3.88;;;1.13;;
9346;SDS011;4712;50.698;7.164;2022-07-10T08:37:16;2.88;;;1.00;;
9346;SDS011;4712;50.698;7.164;2022-07-10T08:39:43;6.47;;;1.00;;
9346;SDS011;4712;50.698;7.164;2022-07-10T08:42:12;6.40;;;1.70;;
9346;SDS011;4712;50.698;7.164;2022-07-10T08:44:40;4.13;;;0.95;;
9346;SDS011;4712;50.698;7.164;2022-07-10T08:47:07;5.70;;;1.10;;
9346;SDS011;4712;50.698;7.164;2022-07-10T08:49:37;5.70;;;1.40;;
9346;SDS011;4712;50.698;7.164;2022-07-10T08:52:06;5.93;;;1.35;;
9346;SDS011;4712;50.698;7.164;2022-07-10T08:54:35;3.72;;;1.08;;
9346;SDS011;4712;50.698;7.164;2022-07-10T08:57:05;4.03;;;1.30;;
9346;SDS011;4712;50.698;7.164;2022-07-10T08:59:34;7.78;;;1.17;;
9346;SDS011;4712;50.698;7.164;2022-07-10T09:02:02;4.95;;;1.40;;
9346;SDS011;4712;50.698;7.164;2022-07-10T09:04:30;4.78;;;1.23;;
9346;SDS011;4712;50.698;7.164;2022-07-10T09:06:57;6.03;;;1.40;;
9346;SDS011;4712;50.698;7.164;2022-07-10T09:09:25;4.10;;;1.30;;
9346;SDS011;4712;50.698;7.164;2022-07-10T09:11:57;6.03;;;2.10;;
9346;SDS011;4712;50.698;7.164;2022-07-10T09:14:25;5.15;;;1.45;;
9346;SDS011;4712;50.698;7.164;2022-07-10T09:17:01;4.53;;;1.48;;
9346;SDS011;4712;50.698;7.164;2022-07-10T09:19:29;7.13;;;1.77;;
9346;SDS011;4712;50.698;7.164;2022-07-10T09:21:59;5.65;;;1.60;;
9346;SDS011;4712;50.698;7.164;2022-07-10T09:24:34;3.17;;;1.27;;
9346;SDS011;4712;50.698;7.164;2022-07-10T09:27:02;3.80;;;1.50;;
9346;SDS011;4712;50.698;7.164;2022-07-10T09:29:30;6.35;;;1.50;;
9346;SDS011;4712;50.698;7.164;2022-07-10T09:31:59;3.88;;;1.35;;
9346;SDS011;4712;50.698;7.164;2022-07-10T09:34:39;8.52;;;1.80;;
9346;SDS011;4712;50.698;7.164;2022-07-10T09:37:23;4.43;;;1.60;;
9346;SDS011;4712;50.698;7.164;2022-07-10T09:39:51;7.88;;;1.65;;
9346;SDS011;4712;50.698;7.164;2022-07-10T09:42:26;6.20;;;1.40;;
9346;SDS011;4712;50.698;7.164;2022-07-10T09:47:38;7.00;;;1.67;;
9346;SDS011;4712;50.698;7.164;2022-07-10T09:50:18;4.55;;;1.40;;
9346;SDS011;4712;50.698;7.164;2022-07-10T09:52:46;6.10;;;1.67;;
9346;SDS011;4712;50.698;7.164;2022-07-10T09:55:15;3.63;;;1.58;;
9346;SDS011;4712;50.698;7.164;2022-07-10T09:57:43;3.58;;;1.15;;
9346;SDS011;4712;50.698;7.164;2022-07-10T10:00:11;7.30;;;1.75;;
9346;SDS011;4712;50.698;7.164;2022-07-10T10:02:38;9.55;;;1.70;;
9346;SDS011;4712;50.698;7.164;2022-07-10T10:05:06;4.53;;;1.70;;
9346;SDS011;4712;50.698;7.164;2022-07-10T10:07:35;4.90;;;1.55;;
9346;SDS011;4712;50.698;7.164;2022-07-10T10:10:05;4.30;;;1.73;;
9346;SDS011;4712;50.698;7.164;2022-07-10T10:12:35;7.72;;;1.88;;
9346;SDS011;4712;50.698;7.164;2022-07-10T10:15:07;5.13;;;1.73;;
9346;SDS011;4712;50.698;7.164;2022-07-10T10:17:35;3.22;;;1.85;;
9346;SDS011;4712;50.698;7.164;2022-07-10T10:20:03;3.92;;;1.65;;
9346;SDS011;4712;50.698;7.164;2022-07-10T10:22:49;4.22;;;1.67;;
9346;SDS011;4712;50.698;7.164;2022-07-10T10:25:17;4.60;;;1.90;;
9346;SDS011;4712;50.698;7.164;2022-07-10T10:27:45;5.22;;;1.70;;
9346;SDS011;4712;50.698;7.164;2022-07-10T10:30:12;4.43;;;1.50;;
9346;SDS011;4712;50.698;7.164;2022-07-10T10:32:40;4.55;;;1.60;;
9346;SDS011;4712;50.698;7.164;2022-07-10T10:35:07;8.57;;;2.22;;
9346;SDS011;4712;50.698;7.164;2022-07-10T10:37:36;4.22;;;1.85;;
9346;SDS011;4712;50.698;7.164;2022-07-10T10:40:06;5.40;;;1.70;;
9346;SDS011;4712;50.698;7.164;2022-07-10T10:42:35;5.03;;;2.00;;
9346;SDS011;4712;50.698;7.164;2022-07-10T10:47:58;6.32;;;2.22;;
9346;SDS011;4712;50.698;7.164;2022-07-10T10:50:46;3.40;;;1.95;;
9346;SDS011;4712;50.698;7.164;2022-07-10T10:53:18;5.57;;;1.83;;
9346;SDS011;4712;50.698;7.164;2022-07-10T10:58:37;3.63;;;2.00;;
9346;SDS011;4712;50.698;7.164;2022-07-10T11:01:23;7.28;;;2.25;;
9346;SDS011;4712;50.698;7.164;2022-07-10T11:06:39;5.32;;;2.00;;
9346;SDS011;4712;50.698;7.164;2022-07-10T11:09:20;4.60;;;1.80;;
9346;SDS011;4712;50.698;7.164;2022-07-10T11:11:57;5.28;;;1.63;;
9346;SDS011;4712;50.698;7.164;2022-07-10T11:14:25;4.15;;;1.70;;
9346;SDS011;4712;50.698;7.164;2022-07-10T11:16:54;4.97;;;1.50;;
9346;SDS011;4712;50.698;7.164;2022-07-10T11:19:22;5.03;;;1.60;;
9346;SDS011;4712;50.698;7.164;2022-07-10T11:21:54;6.15;;;1.95;;
9346;SDS011;4712;50.698;7.164;2022-07-10T11:24:32;5.57;;;1.48;;
9346;SDS011;4712;50.698;7.164;2022-07-10T11:27:02;6.60;;;1.50;;
9346;SDS011;4712;50.698;7.164;2022-07-10T11:29:36;5.13;;;1.20;;
9346;SDS011;4712;50.698;7.164;2022-07-10T11:32:05;4.20;;;1.50;;
9346;SDS011;4712;50.698;7.164;2022-07-10T11:34:34;3.10;;;1.30;;
9346;SDS011;4712;50.698;7.164;2022-07-10T11:37:02;5.78;;;1.55;;
9346;SDS011;4712;50.698;7.164;2022-07-10T11:39:30;3.35;;;1.33;;
9346;SDS011;4712;50.698;7.164;2022-07-10T11:41:57;3.35;;;1.50;;
9346;SDS011;4712;50.698;7.164;2022-07-10T11:44:25;4.10;;;1.60;;
9346;SDS011;4712;50.698;7.164;2022-07-10T11:46:55;3.13;;;1.30;;
9346;SDS011;4712;50.698;7.164;2022-07-10T11:49:24;2.90;;;1.50;;
9346;SDS011;4712;50.698;7.164;2022-07-10T11:52:00;4.63;;;1.60;;
9346;SDS011;4712;50.698;7.164;2022-07-10T11:54:28;4.65;;;1.65;;
9346;SDS011;4712;50.698;7.164;2022-07-10T11:56:55;3.97;;;1.67;;
9346;SDS011;4712;50.698;7.164;2022-07-10T11:59:23;5.90;;;1.48;;
9346;SDS011;4712;50.698;7.164;2022-07-10T12:01:51;7.18;;;2.17;;
9346;SDS011;4712;50.698;7.164;2022-07-10T12:04:21;3.22;;;1.42;;
9346;SDS011;4712;50.698;7.164;2022-07-10T12:06:50;3.78;;;1.60;;
9346;SDS011;4712;50.698;7.164;2022-07-10T12:09:18;6.88;;;1.38;;
9346;SDS011;4712;50.698;7.164;2022-07-10T12:11:57;6.05;;;1.30;;
9346;SDS011;4712;50.698;7.164;2022-07-10T12:14:25;4.25;;;1.05;;
9346;SDS011;4712;50.698;7.164;2022-07-10T12:16:53;6.25;;;1.05;;
9346;SDS011;4712;50.698;7.164;2022-07-10T12:19:23;4.72;;;1.35;;
9346;SDS011;4712;50.698;7.164;2022-07-10T12:21:51;6.82;;;1.23;;
9346;SDS011;4712;50.698;7.164;2022-07-10T12:24:23;2.75;;;1.20;;
9346;SDS011;4712;50.698;7.164;2022-07-10T12:26:52;5.28;;;1.48;;
9346;SDS011;4712;50.698;7.164;2022-07-10T12:29:22;5.22;;;1.40;;
9346;SDS011;4712;50.698;7.164;2022-07-10T12:31:50;5.70;;;1.50;;
9346;SDS011;4712;50.698;7.164;2022-07-10T12:34:17;6.35;;;1.50;;
9346;SDS011;4712;50.698;7.164;2022-07-10T12:36:47;8.82;;;1.52;;
9346;SDS011;4712;50.698;7.164;2022-07-10T12:39:16;7.18;;;1.52;;
9346;SDS011;4712;50.698;7.164;2022-07-10T12:41:56;5.32;;;1.70;;
9346;SDS011;4712;50.698;7.164;2022-07-10T12:44:31;3.38;;;1.63;;
9346;SDS011;4712;50.698;7.164;2022-07-10T12:46:59;4.50;;;1.80;;
9346;SDS011;4712;50.698;7.164;2022-07-10T12:49:27;8.70;;;2.03;;
9346;SDS011;4712;50.698;7.164;2022-07-10T12:51:56;4.65;;;1.77;;
9346;SDS011;4712;50.698;7.164;2022-07-10T12:54:38;3.25;;;1.58;;
9346;SDS011;4712;50.698;7.164;2022-07-10T12:57:06;4.95;;;1.55;;
9346;SDS011;4712;50.698;7.164;2022-07-10T12:59:34;7.30;;;2.03;;
9346;SDS011;4712;50.698;7.164;2022-07-10T13:02:14;5.55;;;1.98;;
9346;SDS011;4712;50.698;7.164;2022-07-10T13:04:51;4.22;;;1.42;;
9346;SDS011;4712;50.698;7.164;2022-07-10T13:07:20;4.80;;;1.85;;
9346;SDS011;4712;50.698;7.164;2022-07-10T13:09:55;2.90;;;1.27;;
9346;SDS011;4712;50.698;7.164;2022-07-10T13:12:29;4.72;;;1.88;;
9346;SDS011;4712;50.698;7.164;2022-07-10T13:14:56;6.78;;;1.55;;
9346;SDS011;4712;50.698;7.164;2022-07-10T13:17:24;5.38;;;1.77;;
9346;SDS011;4712;50.698;7.164;2022-07-10T13:19:52;8.77;;;1.77;;
9346;SDS011;4712;50.698;7.164;2022-07-10T13:22:20;8.73;;;4.47;;
9346;SDS011;4712;50.698;7.164;2022-07-10T13:24:48;5.35;;;2.13;;
9346;SDS011;4712;50.698;7.164;2022-07-10T13:27:15;4.93;;;2.47;;
9346;SDS011;4712;50.698;7.164;2022-07-10T13:29:42;5.22;;;2.17;;
9346;SDS011;4712;50.698;7.164;2022-07-10T13:32:10;4.47;;;2.67;;
9346;SDS011;4712;50.698;7.164;2022-07-10T13:34:37;6.10;;;2.58;;
9346;SDS011;4712;50.698;7.164;2022-07-10T13:37:04;7.60;;;2.63;;
9346;SDS011;4712;50.698;7.164;2022-07-10T13:39:33;8.05;;;3.25;;
9346;SDS011;4712;50.698;7.164;2022-07-10T13:42:01;6.70;;;2.88;;
9346;SDS011;4712;50.698;7.164;2022-07-10T13:44:28;3.72;;;2.67;;
9346;SDS011;4712;50.698;7.164;2022-07-10T13:46:55;4.90;;;2.92;;
9346;SDS011;4712;50.698;7.164;2022-07-10T13:49:23;5.40;;;2.90;;
9346;SDS011;4712;50.698;7.164;2022-07-10T13:51:54;10.15;;;3.47;;
9346;SDS011;4712;50.698;7.164;2022-07-10T13:54:21;3.92;;;2.72;;
9346;SDS011;4712;50.698;7.164;2022-07-10T13:56:50;3.65;;;2.30;;
9346;SDS011;4712;50.698;7.164;2022-07-10T13:59:18;12.02;;;2.55;;
9346;SDS011;4712;50.698;7.164;2022-07-10T14:01:45;4.82;;;2.45;;
9346;SDS011;4712;50.698;7.164;2022-07-10T14:04:13;10.23;;;3.15;;
9346;SDS011;4712;50.698;7.164;2022-07-10T14:06:40;5.82;;;2.72;;
9346;SDS011;4712;50.698;7.164;2022-07-10T14:09:08;4.90;;;2.35;;
9346;SDS011;4712;50.698;7.164;2022-07-10T14:11:35;5.85;;;2.75;;
9346;SDS011;4712;50.698;7.164;2022-07-10T14:14:04;9.18;;;3.00;;
9346;SDS011;4712;50.698;7.164;2022-07-10T14:16:31;4.82;;;2.70;;
9346;SDS011;4712;50.698;7.164;2022-07-10T14:18:59;8.52;;;3.03;;
9346;SDS011;4712;50.698;7.164;2022-07-10T14:21:26;2.72;;;2.25;;
9346;SDS011;4712;50.698;7.164;2022-07-10T14:23:54;4.40;;;3.00;;
9346;SDS011;4712;50.698;7.164;2022-07-10T14:26:23;4.75;;;2.45;;
9346;SDS011;4712;50.698;7.164;2022-07-10T14:28:50;4.63;;;3.00;;
9346;SDS011;4712;50.698;7.164;2022-07-10T14:31:19;5.15;;;2.53;;
9346;SDS011;4712;50.698;7.164;2022-07-10T14:33:47;3.65;;;2.72;;
9346;SDS011;4712;50.698;7.164;2022-07-10T14:36:14;4.80;;;2.40;;
9346;SDS011;4712;50.698;7.164;2022-07-10T14:38:41;6.13;;;2.67;;
9346;SDS011;4712;50.698;7.164;2022-07-10T14:41:10;4.82;;;2.97;;
9346;SDS011;4712;50.698;7.164;2022-07-10T14:43:37;5.32;;;2.60;;
9346;SDS011;4712;50.698;7.164;2022-07-10T14:46:05;2.25;;;2.05;;
9346;SDS011;4712;50.698;7.164;2022-07-10T14:48:34;4.80;;;2.33;;
9346;SDS011;4712;50.698;7.164;2022-07-10T14:51:02;4.88;;;2.22;;
9346;SDS011;4712;50.698;7.164;2022-07-10T14:53:29;2.83;;;2.10;;
9346;SDS011;4712;50.698;7.164;2022-07-10T14:56:01;5.32;;;1.33;;
9346;SDS011;4712;50.698;7.164;2022-07-10T14:58:28;3.65;;;1.45;;
9346;SDS011;4712;50.698;7.164;2022-07-10T15:00:59;7.45;;;1.98;;
9346;SDS011;4712;50.698;7.164;2022-07-10T15:03:29;3.17;;;1.60;;
9346;SDS011;4712;50.698;7.164;2022-07-10T15:05:57;3.55;;;1.50;;
9346;SDS011;4712;50.698;7.164;2022-07-10T15:08:25;3.40;;;1.70;;
9346;SDS011;4712;50.698;7.164;2022-07-10T15:10:52;3.33;;;1.42;;
9346;SDS011;4712;50.698;7.164;2022-07-10T15:13:20;6.07;;;1.50;;
9346;SDS011;4712;50.698;7.164;2022-07-10T15:15:48;3.20;;;1.70;;
9346;SDS011;4712;50.698;7.164;2022-07-10T15:18:17;5.53;;;1.75;;
9346;SDS011;4712;50.698;7.164;2022-07-10T15:20:45;6.32;;;1.77;;
9346;SDS011;4712;50.698;7.164;2022-07-10T15:23:14;2.83;;;1.45;;
9346;SDS011;4712;50.698;7.164;2022-07-10T15:25:41;3.25;;;1.42;;
9346;SDS011;4712;50.698;7.164;2022-07-10T15:28:09;4.50;;;1.63;;
9346;SDS011;4712;50.698;7.164;2022-07-10T15:30:37;5.38;;;2.25;;
9346;SDS011;4712;50.698;7.164;2022-07-10T15:33:05;3.58;;;1.50;;
9346;SDS011;4712;50.698;7.164;2022-07-10T15:35:32;7.32;;;1.67;;